sensor_id;sensor_type;location;lat;lon;timestamp;pressure;altitude;pressure_sealevel;temperature;humidity
17230;BME280;8731;50.364;8.958;2023-04-21T00:02:17;99853.69;;;8.98;94.95
17230;BME280;8731;50.364;8.958;2023-04-21T00:06:40;99856.97;;;9.06;96.94
17230;BME280;8731;50.364;8.958;2023-04-21T00:11:03;99857.66;;;9.13;97.07
17230;BME280;8731;50.364;8.958;2023-04-21T00:15:27;99848.25;;;9.12;97.20
17230;BME280;8731;50.364;8.958;2023-04-21T00:19:50;99839.25;;;9.25;95.08
17230;BME280;8731;50.364;8.958;2023-04-21T00:24:12;99852.25;;;9.19;96.47
17230;BME280;8731;50.364;8.958;2023-04-21T00:28:35;99850.16;;;9.23;95.39
17230;BME280;8731;50.364;8.958;2023-04-21T00:32:59;99846.19;;;9.08;96.01
17230;BME280;8731;50.364;8.958;2023-04-21T00:37:23;99848.31;;;9.04;99.36
17230;BME280;8731;50.364;8.958;2023-04-21T00:41:46;99854.84;;;9.10;97.49
17230;BME280;8731;50.364;8.958;2023-04-21T00:46:08;99851.59;;;9.03;97.61
17230;BME280;8731;50.364;8.958;2023-04-21T00:50:34;99849.69;;;9.00;99.03
17230;BME280;8731;50.364;8.958;2023-04-21T00:55:00;99844.75;;;9.02;100.00
17230;BME280;8731;50.364;8.958;2023-04-21T00:59:24;99849.09;;;8.94;100.00
17230;BME280;8731;50.364;8.958;2023-04-21T01:03:46;99849.13;;;8.85;100.00
17230;BME280;8731;50.364;8.958;2023-04-21T01:08:10;99836.59;;;8.87;100.00
17230;BME280;8731;50.364;8.958;2023-04-21T01:12:41;99840.69;;;8.68;100.00
17230;BME280;8731;50.364;8.958;2023-04-21T01:17:04;99839.69;;;8.93;100.00
17230;BME280;8731;50.364;8.958;2023-04-21T01:21:28;99849.06;;;9.03;100.00
17230;BME280;8731;50.364;8.958;2023-04-21T01:25:58;99846.13;;;8.89;100.00
17230;BME280;8731;50.364;8.958;2023-04-21T01:30:21;99848.78;;;9.00;100.00
17230;BME280;8731;50.364;8.958;2023-04-21T01:34:45;99843.03;;;8.75;100.00
17230;BME280;8731;50.364;8.958;2023-04-21T01:39:09;99839.47;;;9.09;100.00
17230;BME280;8731;50.364;8.958;2023-04-21T01:43:32;99832.88;;;9.11;100.00
17230;BME280;8731;50.364;8.958;2023-04-21T01:47:55;99837.50;;;9.15;100.00
17230;BME280;8731;50.364;8.958;2023-04-21T01:52:18;99832.47;;;9.06;100.00
17230;BME280;8731;50.364;8.958;2023-04-21T01:56:42;99829.25;;;9.17;100.00
17230;BME280;8731;50.364;8.958;2023-04-21T02:01:07;99818.81;;;9.14;99.92
17230;BME280;8731;50.364;8.958;2023-04-21T02:05:29;99828.03;;;9.22;99.68
17230;BME280;8731;50.364;8.958;2023-04-21T02:09:51;99821.78;;;9.19;99.62
17230;BME280;8731;50.364;8.958;2023-04-21T02:14:15;99825.41;;;9.12;100.00
17230;BME280;8731;50.364;8.958;2023-04-21T02:18:38;99828.63;;;9.29;99.83
17230;BME280;8731;50.364;8.958;2023-04-21T02:23:00;99823.06;;;9.33;98.96
17230;BME280;8731;50.364;8.958;2023-04-21T02:27:23;99824.09;;;9.35;98.96
17230;BME280;8731;50.364;8.958;2023-04-21T02:31:47;99815.38;;;9.41;98.30
17230;BME280;8731;50.364;8.958;2023-04-21T02:36:10;99815.50;;;9.43;99.07
17230;BME280;8731;50.364;8.958;2023-04-21T02:40:33;99825.34;;;9.48;98.18
17230;BME280;8731;50.364;8.958;2023-04-21T02:44:56;99828.03;;;9.50;97.95
17230;BME280;8731;50.364;8.958;2023-04-21T02:49:20;99826.16;;;9.39;99.99
17230;BME280;8731;50.364;8.958;2023-04-21T02:53:43;99812.31;;;9.54;98.64
17230;BME280;8731;50.364;8.958;2023-04-21T02:58:06;99827.81;;;9.57;98.16
17230;BME280;8731;50.364;8.958;2023-04-21T03:02:28;99831.59;;;9.52;98.53
17230;BME280;8731;50.364;8.958;2023-04-21T03:06:52;99833.94;;;9.59;98.30
17230;BME280;8731;50.364;8.958;2023-04-21T03:11:15;99825.69;;;9.62;98.28
17230;BME280;8731;50.364;8.958;2023-04-21T03:15:39;99833.19;;;9.60;98.46
17230;BME280;8731;50.364;8.958;2023-04-21T03:20:01;99822.13;;;9.60;97.48
17230;BME280;8731;50.364;8.958;2023-04-21T03:24:28;99825.56;;;9.60;98.35
17230;BME280;8731;50.364;8.958;2023-04-21T03:28:51;99825.34;;;9.67;97.88
17230;BME280;8731;50.364;8.958;2023-04-21T03:33:13;99829.59;;;9.58;99.62
17230;BME280;8731;50.364;8.958;2023-04-21T03:37:36;99826.44;;;9.61;98.61
17230;BME280;8731;50.364;8.958;2023-04-21T03:42:00;99817.19;;;9.61;99.08
17230;BME280;8731;50.364;8.958;2023-04-21T03:46:24;99817.03;;;9.60;99.67
17230;BME280;8731;50.364;8.958;2023-04-21T03:50:46;99815.53;;;9.62;98.76
17230;BME280;8731;50.364;8.958;2023-04-21T03:55:09;99828.38;;;9.63;99.46
17230;BME280;8731;50.364;8.958;2023-04-21T03:59:33;99829.81;;;9.70;97.62
17230;BME280;8731;50.364;8.958;2023-04-21T04:03:55;99826.31;;;9.59;98.71
17230;BME280;8731;50.364;8.958;2023-04-21T04:08:17;99823.38;;;9.73;97.81
17230;BME280;8731;50.364;8.958;2023-04-21T04:12:40;99836.13;;;9.65;97.84
17230;BME280;8731;50.364;8.958;2023-04-21T04:17:04;99831.19;;;9.66;98.49
17230;BME280;8731;50.364;8.958;2023-04-21T04:21:27;99835.50;;;9.67;97.80
17230;BME280;8731;50.364;8.958;2023-04-21T04:25:51;99823.81;;;9.69;98.40
17230;BME280;8731;50.364;8.958;2023-04-21T04:30:14;99832.44;;;9.61;98.86
17230;BME280;8731;50.364;8.958;2023-04-21T04:34:38;99827.19;;;9.60;98.57
17230;BME280;8731;50.364;8.958;2023-04-21T04:39:00;99829.25;;;9.64;99.54
17230;BME280;8731;50.364;8.958;2023-04-21T04:43:23;99828.50;;;9.65;97.74
17230;BME280;8731;50.364;8.958;2023-04-21T04:47:46;99829.25;;;9.64;98.02
17230;BME280;8731;50.364;8.958;2023-04-21T04:52:10;99830.16;;;9.64;98.56
17230;BME280;8731;50.364;8.958;2023-04-21T04:56:33;99831.47;;;9.50;100.00
17230;BME280;8731;50.364;8.958;2023-04-21T05:00:55;99836.72;;;9.25;100.00
17230;BME280;8731;50.364;8.958;2023-04-21T05:05:18;99838.47;;;9.53;100.00
17230;BME280;8731;50.364;8.958;2023-04-21T05:09:42;99835.44;;;9.57;100.00
17230;BME280;8731;50.364;8.958;2023-04-21T05:14:05;99826.09;;;9.66;100.00
17230;BME280;8731;50.364;8.958;2023-04-21T05:18:28;99820.06;;;9.74;99.12
17230;BME280;8731;50.364;8.958;2023-04-21T05:22:50;99825.56;;;9.60;100.00
17230;BME280;8731;50.364;8.958;2023-04-21T05:27:14;99829.41;;;9.65;100.00
17230;BME280;8731;50.364;8.958;2023-04-21T05:31:37;99829.41;;;9.65;100.00
17230;BME280;8731;50.364;8.958;2023-04-21T05:35:59;99823.56;;;9.85;99.91
17230;BME280;8731;50.364;8.958;2023-04-21T05:40:22;99828.25;;;9.80;99.08
17230;BME280;8731;50.364;8.958;2023-04-21T05:44:45;99826.38;;;9.88;99.62
17230;BME280;8731;50.364;8.958;2023-04-21T05:49:08;99829.41;;;9.84;100.00
17230;BME280;8731;50.364;8.958;2023-04-21T05:53:30;99812.78;;;9.69;100.00
17230;BME280;8731;50.364;8.958;2023-04-21T05:57:53;99809.56;;;9.99;100.00
17230;BME280;8731;50.364;8.958;2023-04-21T06:02:17;99819.50;;;10.06;100.00
17230;BME280;8731;50.364;8.958;2023-04-21T06:06:40;99813.78;;;10.08;100.00
17230;BME280;8731;50.364;8.958;2023-04-21T06:11:03;99808.44;;;10.24;100.00
17230;BME280;8731;50.364;8.958;2023-04-21T06:15:26;99808.56;;;10.26;100.00
17230;BME280;8731;50.364;8.958;2023-04-21T06:19:50;99816.41;;;10.19;100.00
17230;BME280;8731;50.364;8.958;2023-04-21T06:24:13;99821.16;;;10.24;100.00
17230;BME280;8731;50.364;8.958;2023-04-21T06:28:36;99827.53;;;10.29;100.00
17230;BME280;8731;50.364;8.958;2023-04-21T06:32:58;99826.72;;;10.20;100.00
17230;BME280;8731;50.364;8.958;2023-04-21T06:37:22;99817.19;;;10.47;100.00
17230;BME280;8731;50.364;8.958;2023-04-21T06:41:44;99816.72;;;10.61;100.00
17230;BME280;8731;50.364;8.958;2023-04-21T06:46:07;99812.78;;;10.64;100.00
17230;BME280;8731;50.364;8.958;2023-04-21T06:50:30;99802.78;;;10.76;99.01
17230;BME280;8731;50.364;8.958;2023-04-21T06:54:53;99810.28;;;10.85;99.13
17230;BME280;8731;50.364;8.958;2023-04-21T06:59:16;99808.63;;;10.85;99.95
17230;BME280;8731;50.364;8.958;2023-04-21T07:03:38;99817.78;;;10.73;100.00
17230;BME280;8731;50.364;8.958;2023-04-21T07:08:01;99814.75;;;10.77;100.00
17230;BME280;8731;50.364;8.958;2023-04-21T07:12:25;99819.38;;;10.91;99.57
17230;BME280;8731;50.364;8.958;2023-04-21T07:16:47;99820.00;;;11.09;99.38
17230;BME280;8731;50.364;8.958;2023-04-21T07:21:10;99816.34;;;11.16;99.65
17230;BME280;8731;50.364;8.958;2023-04-21T07:25:32;99806.16;;;11.36;98.83
17230;BME280;8731;50.364;8.958;2023-04-21T07:29:57;99800.16;;;11.56;97.33
17230;BME280;8731;50.364;8.958;2023-04-21T07:34:20;99807.16;;;11.68;96.78
17230;BME280;8731;50.364;8.958;2023-04-21T07:38:42;99805.50;;;11.79;97.10
17230;BME280;8731;50.364;8.958;2023-04-21T07:43:05;99802.72;;;11.86;97.15
17230;BME280;8731;50.364;8.958;2023-04-21T07:47:29;99812.88;;;11.96;96.64
17230;BME280;8731;50.364;8.958;2023-04-21T07:51:51;99803.03;;;12.11;96.06
17230;BME280;8731;50.364;8.958;2023-04-21T07:56:14;99803.50;;;12.17;97.04
17230;BME280;8731;50.364;8.958;2023-04-21T08:00:37;99819.06;;;12.20;94.49
17230;BME280;8731;50.364;8.958;2023-04-21T08:05:01;99810.56;;;12.42;94.51
17230;BME280;8731;50.364;8.958;2023-04-21T08:09:24;99803.19;;;12.88;94.00
17230;BME280;8731;50.364;8.958;2023-04-21T08:13:46;99801.84;;;13.15;92.67
17230;BME280;8731;50.364;8.958;2023-04-21T08:18:09;99797.38;;;13.35;91.33
17230;BME280;8731;50.364;8.958;2023-04-21T08:22:33;99802.63;;;13.36;90.96
17230;BME280;8731;50.364;8.958;2023-04-21T08:26:56;99793.88;;;13.56;89.70
17230;BME280;8731;50.364;8.958;2023-04-21T08:31:19;99788.00;;;13.80;88.47
17230;BME280;8731;50.364;8.958;2023-04-21T08:35:41;99787.22;;;14.28;87.42
17230;BME280;8731;50.364;8.958;2023-04-21T08:40:06;99789.22;;;14.56;85.26
17230;BME280;8731;50.364;8.958;2023-04-21T08:44:30;99788.00;;;14.27;83.60
17230;BME280;8731;50.364;8.958;2023-04-21T08:48:52;99784.56;;;14.50;82.56
17230;BME280;8731;50.364;8.958;2023-04-21T08:53:15;99779.53;;;14.52;83.59
17230;BME280;8731;50.364;8.958;2023-04-21T08:57:39;99774.47;;;14.65;82.18
17230;BME280;8731;50.364;8.958;2023-04-21T09:02:08;99786.81;;;15.07;81.52
17230;BME280;8731;50.364;8.958;2023-04-21T09:06:39;99786.28;;;14.63;80.58
17230;BME280;8731;50.364;8.958;2023-04-21T09:11:03;99790.56;;;14.51;81.36
17230;BME280;8731;50.364;8.958;2023-04-21T09:15:27;99791.41;;;14.74;83.10
17230;BME280;8731;50.364;8.958;2023-04-21T09:19:50;99800.50;;;14.46;79.06
17230;BME280;8731;50.364;8.958;2023-04-21T09:24:12;99787.31;;;14.41;79.32
17230;BME280;8731;50.364;8.958;2023-04-21T09:28:35;99792.34;;;14.28;79.20
17230;BME280;8731;50.364;8.958;2023-04-21T09:33:02;99793.25;;;14.29;80.25
17230;BME280;8731;50.364;8.958;2023-04-21T09:37:25;99785.56;;;14.29;79.26
17230;BME280;8731;50.364;8.958;2023-04-21T09:41:52;99787.91;;;14.26;79.36
17230;BME280;8731;50.364;8.958;2023-04-21T09:46:15;99791.91;;;14.10;79.16
17230;BME280;8731;50.364;8.958;2023-04-21T09:50:39;99780.63;;;14.55;78.48
17230;BME280;8731;50.364;8.958;2023-04-21T09:55:03;99777.22;;;14.80;78.10
17230;BME280;8731;50.364;8.958;2023-04-21T09:59:35;99774.00;;;15.07;74.95
17230;BME280;8731;50.364;8.958;2023-04-21T10:03:58;99771.06;;;15.39;74.67
17230;BME280;8731;50.364;8.958;2023-04-21T10:08:23;99756.84;;;15.57;75.04
17230;BME280;8731;50.364;8.958;2023-04-21T10:12:46;99764.34;;;15.41;73.02
17230;BME280;8731;50.364;8.958;2023-04-21T10:17:11;99751.81;;;15.46;73.50
17230;BME280;8731;50.364;8.958;2023-04-21T10:21:35;99748.81;;;15.64;71.80
17230;BME280;8731;50.364;8.958;2023-04-21T10:26:04;99745.94;;;16.26;69.41
17230;BME280;8731;50.364;8.958;2023-04-21T10:30:30;99734.25;;;16.44;71.39
17230;BME280;8731;50.364;8.958;2023-04-21T10:34:55;99732.38;;;16.28;70.03
17230;BME280;8731;50.364;8.958;2023-04-21T10:39:26;99728.94;;;16.82;69.55
17230;BME280;8731;50.364;8.958;2023-04-21T10:43:52;99728.41;;;17.03;69.22
17230;BME280;8731;50.364;8.958;2023-04-21T10:48:14;99720.34;;;16.55;67.13
17230;BME280;8731;50.364;8.958;2023-04-21T10:52:44;99722.47;;;16.48;67.45
17230;BME280;8731;50.364;8.958;2023-04-21T10:57:17;99713.88;;;16.47;66.59
17230;BME280;8731;50.364;8.958;2023-04-21T11:01:42;99696.97;;;17.51;66.81
17230;BME280;8731;50.364;8.958;2023-04-21T11:06:13;99698.84;;;17.68;66.37
17230;BME280;8731;50.364;8.958;2023-04-21T11:10:45;99688.16;;;18.39;64.73
17230;BME280;8731;50.364;8.958;2023-04-21T11:15:13;99689.19;;;18.26;65.79
17230;BME280;8731;50.364;8.958;2023-04-21T11:19:39;99688.56;;;18.30;62.56
17230;BME280;8731;50.364;8.958;2023-04-21T11:24:01;99679.94;;;18.30;63.83
17230;BME280;8731;50.364;8.958;2023-04-21T11:28:25;99673.78;;;18.75;61.04
17230;BME280;8731;50.364;8.958;2023-04-21T11:32:55;99674.16;;;18.50;62.55
17230;BME280;8731;50.364;8.958;2023-04-21T11:37:24;99670.91;;;18.38;59.38
17230;BME280;8731;50.364;8.958;2023-04-21T11:41:49;99663.69;;;18.47;61.27
17230;BME280;8731;50.364;8.958;2023-04-21T11:46:16;99657.84;;;18.19;60.89
17230;BME280;8731;50.364;8.958;2023-04-21T11:50:46;99658.78;;;18.68;60.82
17230;BME280;8731;50.364;8.958;2023-04-21T11:55:13;99652.72;;;18.84;60.57
17230;BME280;8731;50.364;8.958;2023-04-21T11:59:39;99656.13;;;18.83;61.03
17230;BME280;8731;50.364;8.958;2023-04-21T12:04:02;99663.75;;;17.70;60.26
17230;BME280;8731;50.364;8.958;2023-04-21T12:08:28;99654.97;;;17.82;60.64
17230;BME280;8731;50.364;8.958;2023-04-21T12:12:54;99649.22;;;18.18;60.89
17230;BME280;8731;50.364;8.958;2023-04-21T12:17:18;99641.38;;;18.64;61.65
17230;BME280;8731;50.364;8.958;2023-04-21T12:21:41;99646.19;;;18.41;61.82
17230;BME280;8731;50.364;8.958;2023-04-21T12:26:04;99646.25;;;18.43;62.17
17230;BME280;8731;50.364;8.958;2023-04-21T12:30:27;99635.56;;;18.68;62.29
17230;BME280;8731;50.364;8.958;2023-04-21T12:34:50;99634.44;;;18.63;61.57
17230;BME280;8731;50.364;8.958;2023-04-21T12:39:14;99621.38;;;18.60;60.38
17230;BME280;8731;50.364;8.958;2023-04-21T12:43:38;99629.19;;;18.61;61.55
17230;BME280;8731;50.364;8.958;2023-04-21T12:48:02;99631.13;;;18.65;61.03
17230;BME280;8731;50.364;8.958;2023-04-21T12:52:24;99620.16;;;18.86;60.26
17230;BME280;8731;50.364;8.958;2023-04-21T12:56:47;99606.63;;;19.08;59.93
17230;BME280;8731;50.364;8.958;2023-04-21T13:01:09;99590.50;;;19.29;61.01
17230;BME280;8731;50.364;8.958;2023-04-21T13:05:36;99584.75;;;19.35;60.89
17230;BME280;8731;50.364;8.958;2023-04-21T13:09:58;99588.38;;;19.21;58.67
17230;BME280;8731;50.364;8.958;2023-04-21T13:14:21;99580.78;;;19.42;59.53
17230;BME280;8731;50.364;8.958;2023-04-21T13:18:44;99576.94;;;19.51;59.76
17230;BME280;8731;50.364;8.958;2023-04-21T13:23:08;99577.88;;;19.36;58.29
17230;BME280;8731;50.364;8.958;2023-04-21T13:27:33;99573.34;;;19.66;59.96
17230;BME280;8731;50.364;8.958;2023-04-21T13:31:57;99563.91;;;19.66;58.39
17230;BME280;8731;50.364;8.958;2023-04-21T13:36:20;99557.22;;;19.89;59.15
17230;BME280;8731;50.364;8.958;2023-04-21T13:40:45;99550.59;;;19.96;58.36
17230;BME280;8731;50.364;8.958;2023-04-21T13:45:09;99552.06;;;19.71;58.52
17230;BME280;8731;50.364;8.958;2023-04-21T13:49:33;99542.75;;;19.75;57.90
17230;BME280;8731;50.364;8.958;2023-04-21T13:53:56;99544.66;;;19.79;58.74
17230;BME280;8731;50.364;8.958;2023-04-21T13:58:19;99532.38;;;19.55;57.38
17230;BME280;8731;50.364;8.958;2023-04-21T14:02:42;99532.28;;;19.72;57.47
17230;BME280;8731;50.364;8.958;2023-04-21T14:07:04;99514.47;;;19.78;57.40
17230;BME280;8731;50.364;8.958;2023-04-21T14:11:28;99506.31;;;19.69;58.52
17230;BME280;8731;50.364;8.958;2023-04-21T14:15:52;99507.00;;;19.47;57.17
17230;BME280;8731;50.364;8.958;2023-04-21T14:20:14;99498.22;;;19.80;58.12
17230;BME280;8731;50.364;8.958;2023-04-21T14:24:39;99488.09;;;19.66;57.81
17230;BME280;8731;50.364;8.958;2023-04-21T14:29:01;99482.53;;;19.76;57.54
17230;BME280;8731;50.364;8.958;2023-04-21T14:33:25;99480.00;;;19.77;58.17
17230;BME280;8731;50.364;8.958;2023-04-21T14:37:48;99473.22;;;19.79;57.87
17230;BME280;8731;50.364;8.958;2023-04-21T14:42:11;99465.44;;;19.60;56.81
17230;BME280;8731;50.364;8.958;2023-04-21T14:46:34;99454.88;;;19.73;57.53
17230;BME280;8731;50.364;8.958;2023-04-21T14:50:58;99452.84;;;19.66;56.79
17230;BME280;8731;50.364;8.958;2023-04-21T14:55:21;99444.47;;;19.72;57.09
17230;BME280;8731;50.364;8.958;2023-04-21T14:59:43;99436.53;;;19.49;57.10
17230;BME280;8731;50.364;8.958;2023-04-21T15:04:06;99431.69;;;19.75;57.06
17230;BME280;8731;50.364;8.958;2023-04-21T15:08:29;99425.38;;;19.87;58.67
17230;BME280;8731;50.364;8.958;2023-04-21T15:12:51;99408.75;;;19.82;58.72
17230;BME280;8731;50.364;8.958;2023-04-21T15:17:14;99409.22;;;19.93;59.02
17230;BME280;8731;50.364;8.958;2023-04-21T15:21:36;99412.59;;;19.71;58.14
17230;BME280;8731;50.364;8.958;2023-04-21T15:26:00;99402.22;;;19.52;58.42
17230;BME280;8731;50.364;8.958;2023-04-21T15:30:22;99402.56;;;19.98;58.37
17230;BME280;8731;50.364;8.958;2023-04-21T15:34:44;99398.28;;;19.99;59.14
17230;BME280;8731;50.364;8.958;2023-04-21T15:39:11;99396.94;;;19.87;59.25
17230;BME280;8731;50.364;8.958;2023-04-21T15:43:35;99395.44;;;19.92;58.35
17230;BME280;8731;50.364;8.958;2023-04-21T15:47:57;99392.09;;;19.95;58.53
17230;BME280;8731;50.364;8.958;2023-04-21T15:52:19;99382.31;;;19.88;60.98
17230;BME280;8731;50.364;8.958;2023-04-21T15:56:42;99376.03;;;20.02;61.33
17230;BME280;8731;50.364;8.958;2023-04-21T16:01:06;99369.72;;;19.96;62.53
17230;BME280;8731;50.364;8.958;2023-04-21T16:05:28;99368.00;;;19.96;63.23
17230;BME280;8731;50.364;8.958;2023-04-21T16:14:28;99355.75;;;20.11;60.58
17230;BME280;8731;50.364;8.958;2023-04-21T16:18:53;99357.00;;;20.21;61.02
17230;BME280;8731;50.364;8.958;2023-04-21T16:23:15;99360.97;;;20.13;61.78
17230;BME280;8731;50.364;8.958;2023-04-21T16:27:37;99342.13;;;19.95;62.03
17230;BME280;8731;50.364;8.958;2023-04-21T16:32:00;99341.38;;;20.18;62.66
17230;BME280;8731;50.364;8.958;2023-04-21T16:36:24;99336.75;;;19.90;62.62
17230;BME280;8731;50.364;8.958;2023-04-21T16:40:48;99331.63;;;19.71;62.05
17230;BME280;8731;50.364;8.958;2023-04-21T16:49:40;99317.19;;;19.76;62.85
17230;BME280;8731;50.364;8.958;2023-04-21T16:54:04;99316.22;;;19.93;63.01
17230;BME280;8731;50.364;8.958;2023-04-21T16:58:26;99306.56;;;19.89;62.68
17230;BME280;8731;50.364;8.958;2023-04-21T17:02:48;99311.09;;;19.95;62.46
17230;BME280;8731;50.364;8.958;2023-04-21T17:07:11;99304.09;;;19.71;62.98
17230;BME280;8731;50.364;8.958;2023-04-21T17:11:34;99294.22;;;19.62;63.06
17230;BME280;8731;50.364;8.958;2023-04-21T17:15:57;99288.28;;;19.44;62.49
17230;BME280;8731;50.364;8.958;2023-04-21T17:20:19;99293.38;;;19.43;62.90
17230;BME280;8731;50.364;8.958;2023-04-21T17:24:41;99290.50;;;19.37;63.85
17230;BME280;8731;50.364;8.958;2023-04-21T17:29:05;99300.97;;;19.40;63.97
17230;BME280;8731;50.364;8.958;2023-04-21T17:33:28;99307.84;;;19.20;64.55
17230;BME280;8731;50.364;8.958;2023-04-21T17:37:50;99316.78;;;18.89;66.03
17230;BME280;8731;50.364;8.958;2023-04-21T17:42:13;99327.69;;;18.84;66.52
17230;BME280;8731;50.364;8.958;2023-04-21T17:46:37;99327.34;;;18.58;66.79
17230;BME280;8731;50.364;8.958;2023-04-21T17:50:59;99335.00;;;18.57;67.21
17230;BME280;8731;50.364;8.958;2023-04-21T17:55:23;99339.00;;;18.50;67.16
17230;BME280;8731;50.364;8.958;2023-04-21T17:59:45;99329.78;;;18.37;67.59
17230;BME280;8731;50.364;8.958;2023-04-21T18:04:09;99343.03;;;18.09;68.02
17230;BME280;8731;50.364;8.958;2023-04-21T18:08:32;99340.22;;;18.05;68.51
17230;BME280;8731;50.364;8.958;2023-04-21T18:12:54;99346.38;;;17.91;69.33
17230;BME280;8731;50.364;8.958;2023-04-21T18:17:17;99345.28;;;17.69;70.55
17230;BME280;8731;50.364;8.958;2023-04-21T18:21:40;99340.75;;;17.82;69.74
17230;BME280;8731;50.364;8.958;2023-04-21T18:26:03;99354.03;;;17.89;69.82
17230;BME280;8731;50.364;8.958;2023-04-21T18:30:25;99355.34;;;17.81;69.96
17230;BME280;8731;50.364;8.958;2023-04-21T18:34:48;99347.38;;;17.76;71.82
17230;BME280;8731;50.364;8.958;2023-04-21T18:39:11;99357.81;;;17.47;76.17
17230;BME280;8731;50.364;8.958;2023-04-21T18:43:34;99362.72;;;17.10;77.36
17230;BME280;8731;50.364;8.958;2023-04-21T18:47:56;99360.88;;;17.40;75.94
17230;BME280;8731;50.364;8.958;2023-04-21T18:52:18;99366.03;;;17.40;75.50
17230;BME280;8731;50.364;8.958;2023-04-21T18:56:42;99366.84;;;17.39;75.54
17230;BME280;8731;50.364;8.958;2023-04-21T19:01:05;99380.66;;;17.08;77.76
17230;BME280;8731;50.364;8.958;2023-04-21T19:05:27;99388.13;;;16.73;79.81
17230;BME280;8731;50.364;8.958;2023-04-21T19:09:50;99392.91;;;16.67;80.65
17230;BME280;8731;50.364;8.958;2023-04-21T19:14:14;99396.63;;;16.72;79.51
17230;BME280;8731;50.364;8.958;2023-04-21T19:18:36;99395.28;;;16.64;79.48
17230;BME280;8731;50.364;8.958;2023-04-21T19:22:58;99400.34;;;16.62;78.67
17230;BME280;8731;50.364;8.958;2023-04-21T19:27:21;99412.56;;;16.51;78.95
17230;BME280;8731;50.364;8.958;2023-04-21T19:31:44;99405.50;;;15.88;83.68
17230;BME280;8731;50.364;8.958;2023-04-21T19:36:07;99400.53;;;15.91;83.28
17230;BME280;8731;50.364;8.958;2023-04-21T19:40:29;99412.97;;;16.13;81.26
17230;BME280;8731;50.364;8.958;2023-04-21T19:44:52;99424.44;;;16.05;81.14
17230;BME280;8731;50.364;8.958;2023-04-21T19:49:16;99424.94;;;15.70;82.93
17230;BME280;8731;50.364;8.958;2023-04-21T19:53:38;99422.19;;;15.82;81.92
17230;BME280;8731;50.364;8.958;2023-04-21T19:58:00;99425.34;;;15.91;80.25
17230;BME280;8731;50.364;8.958;2023-04-21T20:02:22;99433.44;;;15.69;81.67
17230;BME280;8731;50.364;8.958;2023-04-21T20:06:47;99432.97;;;15.61;81.61
17230;BME280;8731;50.364;8.958;2023-04-21T20:11:09;99428.31;;;15.56;80.78
17230;BME280;8731;50.364;8.958;2023-04-21T20:15:31;99424.31;;;15.46;80.94
17230;BME280;8731;50.364;8.958;2023-04-21T20:19:54;99424.34;;;15.33;81.17
17230;BME280;8731;50.364;8.958;2023-04-21T20:24:17;99422.25;;;15.41;80.12
17230;BME280;8731;50.364;8.958;2023-04-21T20:28:40;99435.09;;;15.27;80.94
17230;BME280;8731;50.364;8.958;2023-04-21T20:33:02;99432.97;;;15.20;80.51
17230;BME280;8731;50.364;8.958;2023-04-21T20:37:24;99443.84;;;14.90;81.86
17230;BME280;8731;50.364;8.958;2023-04-21T20:41:48;99435.56;;;14.94;81.97
17230;BME280;8731;50.364;8.958;2023-04-21T20:46:10;99432.41;;;14.98;81.85
17230;BME280;8731;50.364;8.958;2023-04-21T20:50:34;99441.88;;;14.99;81.42
17230;BME280;8731;50.364;8.958;2023-04-21T20:54:57;99453.09;;;14.88;82.34
17230;BME280;8731;50.364;8.958;2023-04-21T20:59:21;99471.47;;;14.67;82.47
17230;BME280;8731;50.364;8.958;2023-04-21T21:03:43;99471.94;;;14.62;82.31
17230;BME280;8731;50.364;8.958;2023-04-21T21:08:06;99469.47;;;14.63;82.04
17230;BME280;8731;50.364;8.958;2023-04-21T21:12:28;99452.31;;;14.62;81.01
17230;BME280;8731;50.364;8.958;2023-04-21T21:16:52;99445.22;;;14.58;80.85
17230;BME280;8731;50.364;8.958;2023-04-21T21:21:15;99440.59;;;14.53;80.86
17230;BME280;8731;50.364;8.958;2023-04-21T21:25:37;99438.72;;;14.50;80.45
17230;BME280;8731;50.364;8.958;2023-04-21T21:30:00;99431.19;;;14.40;80.31
17230;BME280;8731;50.364;8.958;2023-04-21T21:34:24;99426.94;;;14.27;80.76
17230;BME280;8731;50.364;8.958;2023-04-21T21:38:46;99430.69;;;14.32;80.19
17230;BME280;8731;50.364;8.958;2023-04-21T21:43:09;99423.31;;;14.24;80.21
17230;BME280;8731;50.364;8.958;2023-04-21T21:47:32;99426.81;;;14.12;79.81
17230;BME280;8731;50.364;8.958;2023-04-21T21:51:55;99421.69;;;13.99;80.40
17230;BME280;8731;50.364;8.958;2023-04-21T21:56:18;99417.97;;;13.82;80.33
17230;BME280;8731;50.364;8.958;2023-04-21T22:00:40;99420.53;;;13.58;82.77
17230;BME280;8731;50.364;8.958;2023-04-21T22:05:03;99438.34;;;13.08;84.21
17230;BME280;8731;50.364;8.958;2023-04-21T22:09:27;99439.53;;;13.36;82.01
17230;BME280;8731;50.364;8.958;2023-04-21T22:13:49;99435.41;;;13.38;81.01
17230;BME280;8731;50.364;8.958;2023-04-21T22:18:12;99444.91;;;13.28;82.51
17230;BME280;8731;50.364;8.958;2023-04-21T22:22:37;99459.88;;;13.23;82.01
17230;BME280;8731;50.364;8.958;2023-04-21T22:27:01;99463.53;;;13.15;82.53
17230;BME280;8731;50.364;8.958;2023-04-21T22:31:23;99468.59;;;13.02;82.48
17230;BME280;8731;50.364;8.958;2023-04-21T22:35:46;99460.94;;;12.78;83.80
17230;BME280;8731;50.364;8.958;2023-04-21T22:40:09;99461.78;;;12.44;85.67
17230;BME280;8731;50.364;8.958;2023-04-21T22:44:33;99465.19;;;12.09;88.75
17230;BME280;8731;50.364;8.958;2023-04-21T22:48:55;99462.38;;;12.63;84.88
17230;BME280;8731;50.364;8.958;2023-04-21T22:53:18;99466.13;;;12.45;84.74
17230;BME280;8731;50.364;8.958;2023-04-21T22:57:41;99475.44;;;12.44;84.97
17230;BME280;8731;50.364;8.958;2023-04-21T23:02:05;99474.31;;;12.29;84.71
17230;BME280;8731;50.364;8.958;2023-04-21T23:06:27;99466.78;;;12.31;85.56
17230;BME280;8731;50.364;8.958;2023-04-21T23:10:51;99479.88;;;12.35;85.24
17230;BME280;8731;50.364;8.958;2023-04-21T23:15:13;99468.00;;;12.36;84.59
17230;BME280;8731;50.364;8.958;2023-04-21T23:19:37;99472.34;;;12.37;84.88
17230;BME280;8731;50.364;8.958;2023-04-21T23:23:59;99468.00;;;12.36;84.33
17230;BME280;8731;50.364;8.958;2023-04-21T23:28:21;99465.66;;;12.27;85.17
17230;BME280;8731;50.364;8.958;2023-04-21T23:32:44;99468.97;;;12.14;86.44
17230;BME280;8731;50.364;8.958;2023-04-21T23:37:08;99464.75;;;12.15;86.10
17230;BME280;8731;50.364;8.958;2023-04-21T23:41:30;99462.91;;;12.36;84.70
17230;BME280;8731;50.364;8.958;2023-04-21T23:45:53;99465.56;;;12.37;84.21